createdAt,value
2018-06-05T00:01:45.875Z,18.67
2018-06-05T00:04:13.708Z,21.40
2018-06-05T00:06:41.528Z,19.30
2018-06-05T00:09:09.436Z,19.60
2018-06-05T00:11:37.288Z,21.93
2018-06-05T00:14:05.176Z,20.67
2018-06-05T00:16:32.977Z,20.67
2018-06-05T00:19:01.187Z,20.10
2018-06-05T00:21:29.456Z,17.90
2018-06-05T00:23:57.322Z,21.27
2018-06-05T00:26:25.116Z,23.23
2018-06-05T00:28:53.067Z,19.80
2018-06-05T00:31:21.259Z,22.00
2018-06-05T00:33:49.131Z,20.33
2018-06-05T00:36:16.940Z,21.50
2018-06-05T00:38:45.001Z,21.07
2018-06-05T00:41:12.706Z,22.10
2018-06-05T00:43:40.598Z,20.90
2018-06-05T00:46:08.524Z,21.07
2018-06-05T00:48:36.316Z,23.17
2018-06-05T00:51:14.309Z,21.20
2018-06-05T00:53:42.269Z,21.50
2018-06-05T00:56:10.138Z,24.33
2018-06-05T00:58:37.980Z,20.77
2018-06-05T01:01:05.785Z,22.90
2018-06-05T01:03:33.588Z,24.50
2018-06-05T01:06:01.374Z,22.63
2018-06-05T01:08:29.266Z,20.77
2018-06-05T01:10:57.041Z,21.80
2018-06-05T01:13:24.820Z,23.67
2018-06-05T01:15:52.599Z,21.83
2018-06-05T01:18:20.400Z,22.10
2018-06-05T01:20:49.217Z,24.60
2018-06-05T01:23:17.028Z,24.80
2018-06-05T01:25:44.817Z,24.30
2018-06-05T01:28:12.660Z,23.70
2018-06-05T01:30:40.488Z,24.17
2018-06-05T01:33:08.318Z,24.30
2018-06-05T01:35:36.150Z,25.17
2018-06-05T01:38:04.031Z,23.97
2018-06-05T01:40:31.918Z,23.57
2018-06-05T01:42:59.738Z,25.87
2018-06-05T01:45:27.582Z,27.97
2018-06-05T01:47:55.996Z,27.63
2018-06-05T01:50:23.809Z,25.87
2018-06-05T01:52:51.612Z,27.73
2018-06-05T01:55:19.440Z,27.17
2018-06-05T01:57:47.240Z,26.30
2018-06-05T02:00:15.056Z,31.00
2018-06-05T02:02:42.719Z,27.93
2018-06-05T02:05:10.548Z,31.83
2018-06-05T02:07:38.382Z,27.80
2018-06-05T02:10:06.191Z,26.90
2018-06-05T02:12:34.046Z,29.20
2018-06-05T02:15:01.779Z,28.97
2018-06-05T02:17:29.653Z,27.60
2018-06-05T02:19:57.470Z,29.50
2018-06-05T02:22:25.282Z,30.20
2018-06-05T02:24:53.052Z,31.33
2018-06-05T02:27:20.840Z,30.57
2018-06-05T02:29:48.621Z,32.00
2018-06-05T02:32:16.409Z,30.43
2018-06-05T02:34:44.206Z,33.20
2018-06-05T02:37:12.038Z,33.30
2018-06-05T02:39:39.729Z,32.37
2018-06-05T02:42:14.232Z,33.10
2018-06-05T02:44:42.052Z,34.47
2018-06-05T02:47:09.849Z,32.80
2018-06-05T02:49:37.527Z,32.67
2018-06-05T02:52:05.312Z,35.30
2018-06-05T02:54:33.132Z,35.60
2018-06-05T02:57:00.924Z,35.83
2018-06-05T02:59:28.579Z,35.93
2018-06-05T03:01:56.281Z,32.80
2018-06-05T03:04:24.126Z,33.83
2018-06-05T03:06:51.939Z,34.30
2018-06-05T03:09:19.767Z,34.87
2018-06-05T03:11:47.607Z,36.00
2018-06-05T03:14:15.443Z,34.63
2018-06-05T03:16:43.212Z,30.20
2018-06-05T03:19:11.029Z,34.23
2018-06-05T03:21:38.800Z,33.87
2018-06-05T03:24:06.651Z,34.70
2018-06-05T03:26:34.450Z,32.77
2018-06-05T03:29:02.285Z,32.50
2018-06-05T03:31:30.085Z,32.47
2018-06-05T03:33:57.845Z,30.97
2018-06-05T03:36:25.663Z,31.60
2018-06-05T03:38:53.469Z,31.20
2018-06-05T03:41:21.261Z,33.00
2018-06-05T03:43:49.131Z,31.57
2018-06-05T03:46:16.962Z,33.37
2018-06-05T03:48:44.796Z,32.70
2018-06-05T03:51:12.590Z,36.70
2018-06-05T03:53:40.355Z,32.90
2018-06-05T03:56:08.161Z,31.93
2018-06-05T03:58:35.924Z,32.03
2018-06-05T04:01:03.685Z,34.47
2018-06-05T04:03:31.520Z,38.13
2018-06-05T04:05:59.360Z,38.17
2018-06-05T04:08:27.182Z,38.07
2018-06-05T04:10:54.955Z,33.27
2018-06-05T04:13:22.779Z,34.00
2018-06-05T04:15:50.648Z,34.40
2018-06-05T04:18:18.443Z,35.80
2018-06-05T04:20:46.204Z,33.80
2018-06-05T04:23:13.979Z,37.70
2018-06-05T04:25:41.761Z,33.40
2018-06-05T04:28:09.554Z,36.53
2018-06-05T04:30:37.312Z,37.10
2018-06-05T04:33:04.965Z,37.30
2018-06-05T04:35:32.589Z,36.07
2018-06-05T04:38:00.332Z,37.23
2018-06-05T04:40:28.132Z,38.40
2018-06-05T04:42:55.861Z,32.67
2018-06-05T04:45:23.658Z,34.03
2018-06-05T04:47:51.468Z,33.03
2018-06-05T04:50:19.176Z,31.67
2018-06-05T04:52:47.012Z,32.30
2018-06-05T04:55:14.788Z,31.33
2018-06-05T04:57:42.618Z,31.23
2018-06-05T05:00:10.404Z,30.00
2018-06-05T05:02:38.174Z,32.00
2018-06-05T05:05:06.047Z,28.93
2018-06-05T05:07:33.840Z,28.03
2018-06-05T05:10:01.639Z,29.13
2018-06-05T05:12:29.415Z,28.03
2018-06-05T05:14:57.209Z,27.87
2018-06-05T05:17:25.007Z,29.30
2018-06-05T05:19:52.820Z,28.07
2018-06-05T05:22:20.677Z,28.87
2018-06-05T05:24:48.520Z,28.20
2018-06-05T05:27:16.304Z,28.47
2018-06-05T05:29:44.119Z,26.87
2018-06-05T05:32:11.903Z,26.63
2018-06-05T05:34:39.731Z,27.10
2018-06-05T05:37:08.344Z,27.40
2018-06-05T05:39:36.150Z,26.00
2018-06-05T05:42:03.884Z,24.43
2018-06-05T05:44:31.678Z,27.30
2018-06-05T05:46:59.515Z,26.57
2018-06-05T05:49:27.314Z,26.23
2018-06-05T05:51:55.179Z,25.27
2018-06-05T05:54:22.843Z,24.60
2018-06-05T05:56:50.543Z,25.80
2018-06-05T05:59:18.356Z,25.57
2018-06-05T06:01:46.129Z,23.43
2018-06-05T06:04:13.787Z,24.60
2018-06-05T06:06:41.596Z,23.33
2018-06-05T06:09:09.373Z,24.30
2018-06-05T06:11:37.225Z,22.90
2018-06-05T06:14:05.206Z,21.83
2018-06-05T06:16:32.976Z,22.53
2018-06-05T06:19:00.763Z,22.00
2018-06-05T06:21:28.562Z,24.53
2018-06-05T06:23:56.392Z,26.13
2018-06-05T06:26:24.160Z,25.17
2018-06-05T06:28:51.980Z,24.80
2018-06-05T06:31:19.841Z,22.27
2018-06-05T06:33:48.712Z,25.20
2018-06-05T06:36:16.386Z,23.57
2018-06-05T06:38:44.172Z,24.40
2018-06-05T06:41:12.044Z,23.87
2018-06-05T06:43:39.861Z,23.97
2018-06-05T06:46:07.672Z,24.43
2018-06-05T06:48:35.688Z,28.80
2018-06-05T06:51:04.556Z,30.70
2018-06-05T06:53:32.373Z,28.53
2018-06-05T06:56:00.172Z,28.70
2018-06-05T06:58:27.999Z,28.20
2018-06-05T07:00:55.796Z,26.90
2018-06-05T07:03:23.595Z,23.43
2018-06-05T07:05:51.359Z,24.00
2018-06-05T07:08:19.160Z,23.50
2018-06-05T07:10:47.075Z,24.43
2018-06-05T07:13:14.892Z,24.57
2018-06-05T07:15:42.759Z,24.77
2018-06-05T07:18:10.585Z,26.60
2018-06-05T07:20:38.424Z,24.10
2018-06-05T07:23:06.199Z,23.90
2018-06-05T07:25:34.023Z,22.57
2018-06-05T07:28:01.690Z,25.47
2018-06-05T07:30:29.523Z,25.77
2018-06-05T07:32:57.277Z,28.10
2018-06-05T07:35:25.048Z,24.77
2018-06-05T07:37:52.881Z,25.47
2018-06-05T07:40:20.740Z,22.40
2018-06-05T07:42:48.555Z,24.17
2018-06-05T07:45:16.380Z,24.30
2018-06-05T07:47:44.182Z,21.90
2018-06-05T07:50:11.966Z,22.50
2018-06-05T07:52:39.640Z,23.30
2018-06-05T07:55:07.346Z,22.30
2018-06-05T07:57:35.203Z,20.30
2018-06-05T08:00:03.649Z,21.63
2018-06-05T08:02:31.412Z,23.20
2018-06-05T08:04:59.282Z,22.13
2018-06-05T08:07:26.982Z,20.93
2018-06-05T08:09:54.770Z,22.63
2018-06-05T08:12:22.570Z,22.70
2018-06-05T08:14:50.255Z,22.30
2018-06-05T08:17:18.047Z,21.80
2018-06-05T08:19:45.904Z,21.47
2018-06-05T08:22:13.733Z,25.70
2018-06-05T08:24:41.395Z,28.93
2018-06-05T08:27:09.208Z,27.13
2018-06-05T08:29:37.939Z,30.17
2018-06-05T08:32:10.156Z,27.37
2018-06-05T08:34:37.955Z,25.97
2018-06-05T08:37:05.753Z,26.13
2018-06-05T08:39:33.452Z,26.90
2018-06-05T08:42:01.253Z,25.13
2018-06-05T08:44:29.013Z,22.27
2018-06-05T08:46:56.830Z,23.03
2018-06-05T08:49:24.552Z,27.37
2018-06-05T08:51:52.303Z,24.90
2018-06-05T08:54:20.152Z,22.77
2018-06-05T08:56:47.894Z,26.50
2018-06-05T08:59:15.662Z,22.73
2018-06-05T09:01:43.436Z,22.47
2018-06-05T09:04:11.241Z,23.20
2018-06-05T09:06:39.022Z,24.53
2018-06-05T09:09:07.857Z,19.00
2018-06-05T09:11:35.678Z,23.30
2018-06-05T09:14:03.395Z,22.30
2018-06-05T09:16:31.176Z,21.53
2018-06-05T09:18:58.988Z,23.93
2018-06-05T09:21:26.806Z,22.83
2018-06-05T09:23:54.618Z,24.47
2018-06-05T09:26:22.268Z,24.20
2018-06-05T09:28:50.070Z,22.80
2018-06-05T09:31:17.877Z,24.97
2018-06-05T09:33:45.666Z,22.17
2018-06-05T09:36:13.536Z,27.77
2018-06-05T09:38:41.194Z,27.10
2018-06-05T09:41:08.994Z,21.97
2018-06-05T09:43:36.858Z,25.87
2018-06-05T09:46:04.689Z,23.47
2018-06-05T09:48:32.495Z,24.73
2018-06-05T09:51:00.362Z,26.00
2018-06-05T09:53:28.206Z,24.90
2018-06-05T09:55:55.981Z,25.73
2018-06-05T09:58:23.913Z,26.27
2018-06-05T10:00:52.716Z,23.43
2018-06-05T10:03:21.108Z,25.40
2018-06-05T10:05:48.934Z,25.60
2018-06-05T10:08:16.751Z,26.50
2018-06-05T10:10:44.566Z,24.33
2018-06-05T10:13:12.432Z,24.67
2018-06-05T10:15:40.210Z,25.67
2018-06-05T10:18:08.036Z,25.57
2018-06-05T10:20:35.861Z,27.00
2018-06-05T10:23:03.508Z,26.80
2018-06-05T10:25:31.346Z,25.17
2018-06-05T10:27:59.270Z,27.17
2018-06-05T10:30:27.090Z,24.23
2018-06-05T10:32:54.767Z,24.83
2018-06-05T10:35:22.594Z,23.83
2018-06-05T10:37:50.373Z,23.20
2018-06-05T10:40:18.153Z,24.90
2018-06-05T10:42:45.978Z,26.30
2018-06-05T10:45:13.776Z,22.47
2018-06-05T10:47:41.626Z,22.70
2018-06-05T10:50:09.494Z,21.10
2018-06-05T10:52:37.309Z,22.90
2018-06-05T10:55:05.084Z,26.67
2018-06-05T10:57:32.740Z,23.10
2018-06-05T11:00:00.499Z,22.40
2018-06-05T11:02:28.130Z,23.90
2018-06-05T11:04:55.984Z,23.30
2018-06-05T11:07:23.771Z,24.50
2018-06-05T11:09:51.533Z,20.90
2018-06-05T11:12:19.429Z,21.47
2018-06-05T11:14:47.192Z,20.70
2018-06-05T11:17:14.819Z,21.63
2018-06-05T11:19:42.645Z,22.50
2018-06-05T11:22:10.462Z,21.77
2018-06-05T11:24:38.104Z,21.97
2018-06-05T11:27:05.918Z,22.73
2018-06-05T11:29:33.685Z,21.03
2018-06-05T11:32:01.489Z,23.00
2018-06-05T11:34:29.295Z,24.00
2018-06-05T11:36:57.124Z,21.57
2018-06-05T11:39:24.852Z,22.80
2018-06-05T11:41:52.689Z,21.70
2018-06-05T11:44:20.522Z,21.23
2018-06-05T11:46:48.328Z,21.17
2018-06-05T11:49:16.164Z,21.07
2018-06-05T11:51:43.906Z,23.10
2018-06-05T11:54:11.773Z,23.30
2018-06-05T11:56:39.553Z,21.13
2018-06-05T11:59:07.397Z,24.20
2018-06-05T12:01:35.160Z,22.40
2018-06-05T12:04:03.017Z,24.60
2018-06-05T12:06:30.829Z,22.53
2018-06-05T12:08:58.651Z,24.73
2018-06-05T12:11:26.433Z,25.83
2018-06-05T12:13:54.216Z,28.60
2018-06-05T12:16:22.102Z,24.67
2018-06-05T12:18:49.911Z,26.70
2018-06-05T12:21:17.699Z,24.50
2018-06-05T12:23:45.492Z,24.27
2018-06-05T12:26:14.288Z,23.37
2018-06-05T12:28:41.944Z,26.97
2018-06-05T12:31:09.741Z,24.60
2018-06-05T12:33:38.139Z,25.77
2018-06-05T12:36:06.087Z,26.60
2018-06-05T12:38:33.840Z,26.47
2018-06-05T12:41:01.513Z,24.60
2018-06-05T12:43:34.464Z,30.60
2018-06-05T12:46:02.475Z,28.17
2018-06-05T12:48:30.322Z,26.90
2018-06-05T12:50:58.259Z,25.60
2018-06-05T12:53:26.071Z,25.83
2018-06-05T12:55:53.727Z,27.40
2018-06-05T12:58:21.514Z,26.40
2018-06-05T13:00:49.440Z,26.10
2018-06-05T13:03:17.855Z,27.50
2018-06-05T13:05:45.625Z,26.87
2018-06-05T13:08:13.494Z,26.33
2018-06-05T13:10:41.903Z,28.50
2018-06-05T13:13:09.729Z,29.30
2018-06-05T13:15:37.524Z,27.53
2018-06-05T13:18:05.684Z,28.97
2018-06-05T13:20:33.457Z,26.40
2018-06-05T13:23:01.333Z,26.33
2018-06-05T13:25:29.055Z,27.80
2018-06-05T13:27:56.861Z,28.67
2018-06-05T13:30:25.316Z,28.27
2018-06-05T13:32:53.104Z,27.87
2018-06-05T13:35:20.911Z,29.20
2018-06-05T13:37:48.724Z,30.47
2018-06-05T13:40:16.466Z,30.40
2018-06-05T13:42:44.124Z,32.03
2018-06-05T13:45:11.793Z,27.43
2018-06-05T13:47:39.580Z,30.53
2018-06-05T13:50:07.358Z,30.57
2018-06-05T13:52:35.273Z,29.80
2018-06-05T13:55:03.065Z,31.00
2018-06-05T13:57:30.923Z,31.90
2018-06-05T13:59:59.000Z,36.20
2018-06-05T14:02:26.758Z,32.77
2018-06-05T14:04:54.387Z,31.33
2018-06-05T14:07:22.185Z,30.17
2018-06-05T14:09:49.843Z,31.07
2018-06-05T14:12:17.529Z,33.57
2018-06-05T14:14:45.340Z,29.23
2018-06-05T14:17:13.126Z,30.90
2018-06-05T14:19:40.882Z,33.47
2018-06-05T14:22:08.684Z,31.70
2018-06-05T14:24:36.450Z,29.10
2018-06-05T14:27:04.226Z,34.80
2018-06-05T14:29:32.051Z,28.17
2018-06-05T14:31:59.772Z,28.70
2018-06-05T14:34:27.567Z,33.37
2018-06-05T14:36:55.359Z,33.00
2018-06-05T14:39:23.095Z,30.53
2018-06-05T14:41:50.874Z,31.87
2018-06-05T14:44:18.682Z,31.47
2018-06-05T14:46:46.460Z,30.37
2018-06-05T14:49:14.198Z,30.60
2018-06-05T14:51:42.037Z,30.63
2018-06-05T14:54:09.919Z,29.47
2018-06-05T14:56:37.550Z,33.57
2018-06-05T14:59:05.319Z,31.17
2018-06-05T15:01:33.063Z,31.87
2018-06-05T15:04:00.796Z,29.40
2018-06-05T15:06:28.579Z,31.50
2018-06-05T15:08:56.340Z,32.47
2018-06-05T15:11:24.084Z,33.80
2018-06-05T15:13:51.956Z,32.57
2018-06-05T15:16:19.702Z,30.17
2018-06-05T15:18:47.426Z,27.40
2018-06-05T15:21:15.280Z,29.03
2018-06-05T15:23:43.029Z,31.73
2018-06-05T15:26:10.775Z,31.40
2018-06-05T15:28:38.518Z,29.67
2018-06-05T15:31:06.199Z,30.60
2018-06-05T15:33:34.025Z,30.40
2018-06-05T15:36:02.279Z,28.90
2018-06-05T15:38:30.056Z,28.07
2018-06-05T15:40:57.811Z,27.40
2018-06-05T15:43:25.567Z,28.90
2018-06-05T15:45:53.407Z,28.20
2018-06-05T15:48:21.293Z,26.13
2018-06-05T15:50:49.115Z,28.27
2018-06-05T15:53:16.728Z,29.60
2018-06-05T15:55:44.506Z,28.50
2018-06-05T15:58:12.425Z,29.63
2018-06-05T16:00:40.232Z,30.60
2018-06-05T16:03:08.021Z,31.20
2018-06-05T16:05:35.744Z,28.37
2018-06-05T16:08:03.644Z,29.60
2018-06-05T16:10:31.452Z,30.20
2018-06-05T16:12:59.832Z,28.10
2018-06-05T16:15:28.421Z,30.70
2018-06-05T16:17:56.534Z,29.13
2018-06-05T16:20:25.655Z,32.40
2018-06-05T16:22:53.936Z,30.93
2018-06-05T16:25:21.747Z,32.50
2018-06-05T16:27:49.596Z,35.37
2018-06-05T16:30:17.403Z,35.30
2018-06-05T16:32:45.216Z,32.47
2018-06-05T16:35:13.063Z,33.83
2018-06-05T16:37:41.023Z,31.03
2018-06-05T16:40:08.700Z,32.50
2018-06-05T16:42:37.109Z,33.60
2018-06-05T16:45:05.000Z,30.87
2018-06-05T16:47:32.839Z,32.97
2018-06-05T16:50:00.744Z,30.07
2018-06-05T16:52:28.607Z,30.20
2018-06-05T16:54:56.463Z,32.83
2018-06-05T16:57:24.273Z,33.43
2018-06-05T16:59:52.209Z,30.43
2018-06-05T17:02:19.996Z,32.37
2018-06-05T17:04:47.883Z,30.60
2018-06-05T17:07:15.647Z,31.50
2018-06-05T17:09:43.307Z,32.90
2018-06-05T17:12:11.202Z,31.40
2018-06-05T17:14:39.060Z,28.43
2018-06-05T17:17:06.979Z,28.40
2018-06-05T17:19:34.939Z,31.00
2018-06-05T17:22:02.765Z,28.60
2018-06-05T17:24:30.827Z,29.23
2018-06-05T17:26:58.540Z,30.90
2018-06-05T17:29:26.364Z,30.27
2018-06-05T17:31:54.132Z,29.90
2018-06-05T17:34:22.000Z,30.90
2018-06-05T17:36:49.887Z,31.73
2018-06-05T17:39:17.709Z,30.83
2018-06-05T17:41:45.602Z,28.30
2018-06-05T17:44:13.392Z,30.47
2018-06-05T17:46:41.208Z,30.57
2018-06-05T17:49:08.995Z,31.70
2018-06-05T17:51:36.803Z,32.97
2018-06-05T17:54:04.719Z,33.70
2018-06-05T17:56:32.612Z,35.63
2018-06-05T17:59:00.423Z,33.40
2018-06-05T18:01:28.284Z,39.30
2018-06-05T18:03:56.358Z,41.73
2018-06-05T18:06:24.373Z,39.00
2018-06-05T18:08:52.243Z,36.90
2018-06-05T18:11:20.125Z,37.00
2018-06-05T18:13:47.992Z,37.77
2018-06-05T18:16:15.819Z,41.07
2018-06-05T18:18:44.453Z,38.20
2018-06-05T18:21:12.358Z,36.90
2018-06-05T18:23:40.360Z,39.47
2018-06-05T18:26:08.228Z,38.97
2018-06-05T18:28:36.109Z,39.53
2018-06-05T18:31:07.493Z,38.50
2018-06-05T18:33:37.106Z,39.27
2018-06-05T18:36:05.654Z,39.07
2018-06-05T18:38:33.605Z,36.17
2018-06-05T18:41:01.924Z,35.63
2018-06-05T18:43:30.005Z,36.43
2018-06-05T18:45:57.891Z,36.50
2018-06-05T18:48:26.847Z,36.03
2018-06-05T18:50:54.656Z,35.30
2018-06-05T18:53:22.611Z,29.10
2018-06-05T18:55:50.416Z,31.63
2018-06-05T18:58:18.293Z,25.37
2018-06-05T19:00:46.850Z,25.53
2018-06-05T19:03:14.843Z,23.60
2018-06-05T19:05:42.644Z,22.63
2018-06-05T19:08:10.781Z,22.07
2018-06-05T19:10:38.684Z,24.83
2018-06-05T19:15:42.299Z,24.10
2018-06-05T19:18:10.812Z,24.03
2018-06-05T19:20:38.514Z,26.13
2018-06-05T19:23:06.479Z,22.97
2018-06-05T19:25:34.528Z,23.20
2018-06-05T19:28:02.631Z,22.90
2018-06-05T19:30:30.546Z,24.33
2018-06-05T19:32:58.490Z,21.77
2018-06-05T19:35:26.710Z,23.07
2018-06-05T19:37:54.629Z,25.00
2018-06-05T19:40:22.363Z,23.43
2018-06-05T19:42:50.180Z,24.43
2018-06-05T19:45:17.909Z,25.37
2018-06-05T19:47:45.803Z,26.47
2018-06-05T19:50:14.934Z,26.43
2018-06-05T19:52:42.925Z,28.27
2018-06-05T19:55:10.841Z,27.80
2018-06-05T19:57:38.738Z,31.03
2018-06-05T20:00:06.898Z,30.30
2018-06-05T20:02:34.849Z,30.00
2018-06-05T20:05:02.771Z,30.40
2018-06-05T20:07:30.690Z,30.67
2018-06-05T20:09:58.796Z,32.30
2018-06-05T20:12:26.752Z,30.40
2018-06-05T20:14:54.660Z,32.13
2018-06-05T20:17:22.492Z,29.80
2018-06-05T20:19:50.184Z,31.07
2018-06-05T20:22:18.048Z,30.37
2018-06-05T20:24:45.893Z,30.60
2018-06-05T20:27:13.577Z,31.03
2018-06-05T20:29:41.413Z,31.47
2018-06-05T20:32:09.515Z,33.43
2018-06-05T20:34:37.434Z,29.50
2018-06-05T20:37:05.622Z,31.07
2018-06-05T20:39:33.680Z,32.80
2018-06-05T20:42:01.521Z,33.70
2018-06-05T20:44:29.484Z,33.23
2018-06-05T20:46:57.908Z,35.03
2018-06-05T20:49:25.680Z,32.93
2018-06-05T20:51:54.164Z,32.63
2018-06-05T20:54:22.253Z,32.80
2018-06-05T20:56:54.032Z,34.80
2018-06-05T20:59:21.935Z,34.10
2018-06-05T21:01:49.847Z,33.10
2018-06-05T21:04:17.849Z,35.10
2018-06-05T21:06:45.972Z,33.90
2018-06-05T21:09:14.000Z,33.70
2018-06-05T21:11:42.762Z,32.70
2018-06-05T21:14:10.661Z,33.00
2018-06-05T21:16:38.473Z,37.43
2018-06-05T21:19:06.384Z,34.63
2018-06-05T21:21:34.240Z,37.00
2018-06-05T21:24:02.229Z,35.23
2018-06-05T21:26:30.450Z,36.30
2018-06-05T21:28:58.504Z,33.60
2018-06-05T21:31:26.636Z,33.27
2018-06-05T21:33:54.970Z,38.63
2018-06-05T21:36:22.822Z,34.50
2018-06-05T21:38:50.716Z,35.63
2018-06-05T21:41:18.533Z,35.60
2018-06-05T21:43:46.387Z,35.50
2018-06-05T21:46:14.561Z,36.83
2018-06-05T21:48:42.425Z,35.07
2018-06-05T21:51:10.788Z,34.57
2018-06-05T21:53:39.341Z,35.90
2018-06-05T21:56:07.305Z,35.03
2018-06-05T21:58:35.101Z,36.30
2018-06-05T22:01:03.104Z,37.10
2018-06-05T22:03:31.050Z,37.40
2018-06-05T22:05:59.416Z,32.90
2018-06-05T22:08:27.228Z,34.20
2018-06-05T22:10:55.075Z,37.00
2018-06-05T22:13:22.962Z,35.97
2018-06-05T22:15:51.033Z,36.07
2018-06-05T22:18:18.873Z,33.33
2018-06-05T22:20:46.775Z,36.83
2018-06-05T22:23:14.896Z,36.13
2018-06-05T22:25:42.568Z,35.93
2018-06-05T22:28:10.512Z,35.17
2018-06-05T22:30:38.364Z,36.10
2018-06-05T22:33:06.515Z,34.17
2018-06-05T22:35:34.625Z,35.07
2018-06-05T22:38:02.640Z,33.53
2018-06-05T22:40:30.491Z,33.43
2018-06-05T22:42:58.456Z,32.80
2018-06-05T22:45:27.193Z,34.23
2018-06-05T22:47:55.205Z,35.47
2018-06-05T22:50:23.832Z,33.70
2018-06-05T22:52:51.654Z,35.33
2018-06-05T22:55:19.437Z,32.90
2018-06-05T22:57:47.231Z,36.43
2018-06-05T23:00:21.974Z,34.73
2018-06-05T23:02:49.778Z,31.97
2018-06-05T23:05:17.544Z,34.40
2018-06-05T23:07:45.328Z,34.23
2018-06-05T23:10:13.090Z,34.47
2018-06-05T23:12:40.858Z,34.40
2018-06-05T23:15:09.008Z,34.67
2018-06-05T23:17:36.666Z,34.90
2018-06-05T23:20:04.425Z,35.10
2018-06-05T23:22:32.232Z,35.90
2018-06-05T23:24:59.984Z,35.70
2018-06-05T23:27:27.861Z,35.00
2018-06-05T23:29:55.656Z,35.50
2018-06-05T23:32:23.453Z,34.07
2018-06-05T23:34:51.217Z,35.83
2018-06-05T23:37:18.895Z,35.60
2018-06-05T23:39:46.661Z,32.57
2018-06-05T23:42:14.425Z,35.03
2018-06-05T23:44:42.232Z,35.93
2018-06-05T23:47:10.008Z,34.97
2018-06-05T23:49:37.830Z,37.63
2018-06-05T23:52:05.758Z,35.33
2018-06-05T23:54:33.927Z,36.13
2018-06-05T23:57:01.684Z,34.43
2018-06-05T23:59:29.503Z,34.97
